Schedule Details


Flight Number: CTN481
Departure: Kastrup (EKCH) at 11:20
Arrival: Franjo Tudman (LDZA) at 13:25
Route: BALOX?M736?SALLO?UM44?KOGIM?UM725?HDO?M725?VOZ?Z21?PISAM?DCT?PUBEG?DCT?PETOV

Weather Information
EKCH 092320Z AUTO 28005KT 9999 FEW220/// 03/00 Q1026 NOSIG
LDZA 092330Z 24003KT CAVOK 05/00 Q1022 NOSIG
Schedule Frequency

Route Map